createdAt,value
2018-08-31T00:00:29.676Z,22.3
2018-08-31T00:01:19.295Z,22.3
2018-08-31T00:02:08.549Z,22.3
2018-08-31T00:02:59.174Z,22.3
2018-08-31T00:03:49.696Z,22.3
2018-08-31T00:04:39.253Z,22.3
2018-08-31T00:05:28.775Z,22.3
2018-08-31T00:06:18.817Z,22.3
2018-08-31T00:07:09.967Z,22.3
2018-08-31T00:07:59.794Z,22.3
2018-08-31T00:08:48.725Z,22.3
2018-08-31T00:09:40.382Z,22.3
2018-08-31T00:10:30.134Z,22.3
2018-08-31T00:11:20.285Z,22.3
2018-08-31T00:12:09.240Z,22.3
2018-08-31T00:31:34.994Z,22.2
2018-08-31T00:32:23.751Z,22.2
2018-08-31T00:33:13.541Z,22.2
2018-08-31T00:34:04.751Z,22.2
2018-08-31T00:34:53.613Z,22.2
2018-08-31T00:35:44.575Z,22.2
2018-08-31T00:36:34.610Z,22.2
2018-08-31T00:37:24.138Z,22.2
2018-08-31T00:38:14.442Z,22.2
2018-08-31T00:39:04.817Z,22.2
2018-08-31T00:39:54.058Z,22.2
2018-08-31T00:40:44.125Z,22.2
2018-08-31T00:41:35.000Z,22.2
2018-08-31T00:42:24.815Z,22.2
2018-08-31T00:43:14.856Z,22.2
2018-08-31T00:44:05.230Z,22.2
2018-08-31T00:44:54.672Z,22.2
2018-08-31T00:45:45.840Z,22.2
2018-08-31T00:46:35.907Z,22.2
2018-08-31T00:47:24.872Z,22.2
2018-08-31T00:48:15.541Z,22.2
2018-08-31T00:49:05.614Z,22.2
2018-08-31T00:49:55.126Z,22.2
2018-08-31T00:50:45.485Z,22.2
2018-08-31T00:51:35.174Z,22.2
2018-08-31T00:52:25.827Z,22.2
2018-08-31T00:53:15.631Z,22.2
2018-08-31T00:54:05.969Z,22.2
2018-08-31T00:54:55.738Z,22.2
2018-08-31T00:55:45.782Z,22.2
2018-08-31T00:56:36.141Z,22.2
2018-08-31T00:57:25.941Z,22.2
2018-08-31T00:58:15.737Z,22.2
2018-08-31T00:59:06.671Z,22.2
2018-08-31T00:59:55.861Z,22.2
2018-08-31T01:00:46.504Z,22.2
2018-08-31T01:01:36.201Z,22.1
2018-08-31T01:02:26.296Z,22.2
2018-08-31T01:03:15.901Z,22.2
2018-08-31T01:04:06.744Z,22.1
2018-08-31T01:04:56.529Z,22.1
2018-08-31T01:05:45.956Z,22.1
2018-08-31T01:06:36.576Z,22.1
2018-08-31T01:07:26.406Z,22.1
2018-08-31T01:08:16.173Z,22.1
2018-08-31T01:09:07.098Z,22.1
2018-08-31T01:09:57.158Z,22.1
2018-08-31T01:10:46.626Z,22.1
2018-08-31T01:11:36.713Z,22.1
2018-08-31T01:12:27.879Z,22.1
2018-08-31T01:13:17.746Z,22.1
2018-08-31T01:14:06.986Z,22.1
2018-08-31T01:14:57.383Z,22.1
2018-08-31T01:15:47.358Z,22.1
2018-08-31T01:16:37.430Z,22.1
2018-08-31T01:17:27.200Z,22.1
2018-08-31T01:18:17.818Z,22.1
2018-08-31T01:19:07.590Z,22.1
2018-08-31T01:19:57.375Z,22.1
2018-08-31T01:20:48.013Z,22.1
2018-08-31T01:21:37.775Z,22.1
2018-08-31T01:22:28.086Z,22.1
2018-08-31T01:23:18.747Z,22.1
2018-08-31T01:24:07.720Z,22.1
2018-08-31T01:24:58.382Z,22.1
2018-08-31T01:25:48.432Z,22.1
2018-08-31T01:26:37.619Z,22.1
2018-08-31T01:27:28.780Z,22.1
2018-08-31T01:28:18.152Z,22.1
2018-08-31T01:29:08.097Z,22.1
2018-08-31T01:29:58.739Z,22.1
2018-08-31T01:30:48.464Z,22.1
2018-08-31T01:31:38.569Z,22.1
2018-08-31T01:32:28.054Z,22.1
2018-08-31T01:33:18.888Z,22.1
2018-08-31T01:34:09.302Z,22.1
2018-08-31T01:34:58.837Z,22.1
2018-08-31T01:35:48.399Z,22.1
2018-08-31T01:36:39.280Z,22.1
2018-08-31T01:37:29.059Z,22.1
2018-08-31T01:38:19.671Z,22.1
2018-08-31T01:39:09.514Z,22.1
2018-08-31T01:39:59.261Z,22.1
2018-08-31T01:40:48.144Z,22.1
2018-08-31T01:41:38.791Z,22.1
2018-08-31T01:42:29.124Z,22.1
2018-08-31T01:43:19.494Z,22.1
2018-08-31T01:44:10.402Z,22.1
2018-08-31T01:44:59.618Z,22.1
2018-08-31T01:45:49.071Z,22.1
2018-08-31T01:46:40.039Z,22.1
2018-08-31T01:47:29.781Z,22.1
2018-08-31T01:48:19.568Z,22.1
2018-08-31T01:49:09.958Z,22.1
2018-08-31T01:49:59.349Z,22.1
2018-08-31T01:50:49.434Z,22.1
2018-08-31T01:51:40.143Z,22.1
2018-08-31T01:52:30.164Z,22.1
2018-08-31T01:53:20.525Z,22.1
2018-08-31T01:54:10.913Z,22.1
2018-08-31T01:55:00.073Z,22.1
2018-08-31T01:55:50.403Z,22.1
2018-08-31T01:56:40.453Z,22.1
2018-08-31T01:57:30.291Z,22.1
2018-08-31T01:58:20.886Z,22.1
2018-08-31T01:59:10.974Z,22.1
2018-08-31T02:00:00.488Z,22.1
2018-08-31T02:00:50.800Z,22
2018-08-31T02:01:40.855Z,22.1
2018-08-31T02:02:31.207Z,22
2018-08-31T02:03:20.972Z,22
2018-08-31T02:04:13.092Z,22
2018-08-31T02:05:00.603Z,22.1
2018-08-31T02:05:51.717Z,22.1
2018-08-31T02:06:41.800Z,22
2018-08-31T02:07:31.637Z,22.1
2018-08-31T02:08:21.338Z,22
2018-08-31T02:09:11.763Z,22.1
2018-08-31T02:10:02.163Z,22.1
2018-08-31T02:10:50.195Z,22
2018-08-31T02:11:41.377Z,22.1
2018-08-31T02:12:31.113Z,22
2018-08-31T02:13:21.506Z,22
2018-08-31T02:14:11.839Z,22
2018-08-31T02:15:02.187Z,22
2018-08-31T02:15:52.729Z,22
2018-08-31T02:16:42.299Z,22
2018-08-31T02:17:31.513Z,22
2018-08-31T02:18:22.452Z,22
2018-08-31T02:19:11.134Z,22
2018-08-31T02:20:02.657Z,22
2018-08-31T02:20:52.113Z,22
2018-08-31T02:21:42.569Z,22
2018-08-31T02:22:32.124Z,22
2018-08-31T02:23:22.705Z,22
2018-08-31T02:24:12.339Z,22
2018-08-31T02:25:01.787Z,22
2018-08-31T02:25:53.279Z,22
2018-08-31T02:26:43.104Z,22
2018-08-31T02:27:32.843Z,22
2018-08-31T02:28:22.919Z,22
2018-08-31T02:29:12.983Z,22
2018-08-31T02:30:03.648Z,22
2018-08-31T02:30:51.717Z,21.9
2018-08-31T02:31:43.474Z,22
2018-08-31T02:32:32.661Z,22
2018-08-31T02:33:23.028Z,22
2018-08-31T02:34:14.219Z,22
2018-08-31T02:35:03.419Z,22
2018-08-31T02:35:53.199Z,22
2018-08-31T02:36:44.150Z,22
2018-08-31T02:37:33.941Z,22
2018-08-31T02:38:24.239Z,22
2018-08-31T02:39:15.139Z,22
2018-08-31T02:40:04.137Z,21.9
2018-08-31T02:40:54.185Z,22
2018-08-31T02:41:43.648Z,21.9
2018-08-31T02:42:34.043Z,22
2018-08-31T02:43:23.760Z,22
2018-08-31T02:44:14.478Z,22
2018-08-31T02:45:04.477Z,21.9
2018-08-31T02:45:54.240Z,22
2018-08-31T02:46:44.326Z,21.9
2018-08-31T02:47:34.633Z,22
2018-08-31T02:48:24.593Z,22
2018-08-31T02:49:14.286Z,21.9
2018-08-31T02:50:04.323Z,22
2018-08-31T02:50:54.867Z,21.9
2018-08-31T02:51:44.424Z,21.9
2018-08-31T02:52:34.817Z,21.9
2018-08-31T02:53:24.533Z,21.9
2018-08-31T02:54:15.236Z,21.9
2018-08-31T02:55:05.785Z,21.9
2018-08-31T02:55:54.221Z,21.9
2018-08-31T02:56:44.915Z,21.9
2018-08-31T02:57:35.732Z,21.9
2018-08-31T02:58:25.600Z,21.9
2018-08-31T02:59:15.369Z,21.9
2018-08-31T03:00:05.637Z,21.9
2018-08-31T03:00:55.958Z,21.9
2018-08-31T03:01:44.994Z,21.9
2018-08-31T03:02:34.962Z,21.9
2018-08-31T03:03:25.042Z,21.9
2018-08-31T03:04:15.665Z,21.9
2018-08-31T03:05:06.048Z,21.9
2018-08-31T03:05:56.111Z,21.9
2018-08-31T03:06:45.859Z,21.9
2018-08-31T03:07:35.315Z,21.9
2018-08-31T03:08:25.494Z,21.9
2018-08-31T03:09:16.078Z,21.9
2018-08-31T03:10:06.473Z,21.9
2018-08-31T03:10:55.928Z,21.9
2018-08-31T03:11:48.130Z,21.9
2018-08-31T03:12:36.362Z,21.9
2018-08-31T03:13:25.606Z,21.9
2018-08-31T03:14:16.799Z,21.9
2018-08-31T03:15:06.742Z,21.9
2018-08-31T03:15:57.152Z,21.9
2018-08-31T03:16:47.196Z,21.9
2018-08-31T03:17:37.007Z,21.9
2018-08-31T03:18:26.563Z,21.9
2018-08-31T03:19:17.138Z,21.9
2018-08-31T03:20:06.550Z,21.9
2018-08-31T03:20:57.253Z,21.9
2018-08-31T03:21:47.617Z,21.9
2018-08-31T03:22:37.069Z,21.9
2018-08-31T03:23:27.464Z,21.9
2018-08-31T03:24:17.205Z,21.9
2018-08-31T03:25:07.303Z,21.9
2018-08-31T03:25:57.744Z,21.9
2018-08-31T03:26:47.706Z,21.9
2018-08-31T03:27:37.200Z,21.9
2018-08-31T03:28:27.880Z,21.9
2018-08-31T03:29:17.932Z,21.9
2018-08-31T03:30:07.738Z,21.9
2018-08-31T03:30:57.805Z,21.9
2018-08-31T03:31:47.326Z,21.9
2018-08-31T03:32:38.022Z,21.9
2018-08-31T03:33:28.252Z,21.9
2018-08-31T03:34:18.264Z,21.9
2018-08-31T03:35:07.899Z,21.9
2018-08-31T03:35:58.372Z,21.9
2018-08-31T03:36:48.745Z,21.9
2018-08-31T03:37:37.998Z,21.9
2018-08-31T03:38:28.947Z,21.9
2018-08-31T03:39:18.661Z,21.9
2018-08-31T03:40:08.428Z,21.9
2018-08-31T03:40:58.959Z,21.9
2018-08-31T03:41:48.628Z,21.9
2018-08-31T03:42:37.734Z,21.9
2018-08-31T03:43:28.496Z,21.8
2018-08-31T03:44:18.187Z,21.9
2018-08-31T03:45:08.846Z,21.9
2018-08-31T03:45:59.956Z,21.9
2018-08-31T03:46:48.633Z,21.9
2018-08-31T03:47:38.742Z,21.8
2018-08-31T03:48:29.109Z,21.9
2018-08-31T03:49:19.143Z,21.9
2018-08-31T03:50:09.498Z,21.9
2018-08-31T03:50:59.196Z,21.9
2018-08-31T03:51:49.328Z,21.9
2018-08-31T03:52:39.427Z,21.9
2018-08-31T03:53:29.166Z,21.8
2018-08-31T03:54:19.825Z,21.9
2018-08-31T03:55:09.873Z,21.8
2018-08-31T03:55:59.923Z,21.9
2018-08-31T03:56:49.413Z,21.8
2018-08-31T03:57:39.739Z,21.8
2018-08-31T03:58:29.580Z,21.8
2018-08-31T03:59:19.870Z,21.8
2018-08-31T04:00:10.268Z,21.8
2018-08-31T04:01:00.386Z,21.8
2018-08-31T04:01:50.655Z,21.8
2018-08-31T04:02:39.858Z,21.8
2018-08-31T04:03:30.565Z,21.8
2018-08-31T04:04:20.308Z,21.8
2018-08-31T04:05:10.401Z,21.9
2018-08-31T04:06:00.733Z,21.8
2018-08-31T04:06:50.462Z,21.8
2018-08-31T04:07:40.520Z,21.8
2018-08-31T04:08:30.622Z,21.8
2018-08-31T04:09:20.429Z,21.8
2018-08-31T04:10:11.056Z,21.8
2018-08-31T04:11:01.077Z,21.8
2018-08-31T04:11:50.851Z,21.8
2018-08-31T04:12:40.882Z,21.8
2018-08-31T04:13:30.442Z,21.8
2018-08-31T04:14:21.388Z,21.8
2018-08-31T04:15:13.513Z,21.8
2018-08-31T04:16:01.209Z,21.8
2018-08-31T04:16:51.134Z,21.8
2018-08-31T04:17:40.486Z,21.8
2018-08-31T04:18:31.394Z,21.8
2018-08-31T04:19:22.044Z,21.8
2018-08-31T04:20:11.763Z,21.8
2018-08-31T04:21:01.850Z,21.8
2018-08-31T04:21:51.071Z,21.8
2018-08-31T04:22:41.761Z,21.8
2018-08-31T04:23:31.249Z,21.8
2018-08-31T04:24:22.191Z,21.8
2018-08-31T04:25:11.696Z,21.8
2018-08-31T04:26:01.027Z,21.8
2018-08-31T04:26:51.491Z,21.8
2018-08-31T04:27:41.819Z,21.8
2018-08-31T04:28:31.227Z,21.8
2018-08-31T04:29:21.778Z,21.8
2018-08-31T04:30:12.168Z,21.8
2018-08-31T04:31:01.668Z,21.8
2018-08-31T04:31:51.816Z,21.8
2018-08-31T04:32:41.936Z,21.8
2018-08-31T04:33:31.979Z,21.8
2018-08-31T04:34:22.403Z,21.8
2018-08-31T04:35:12.163Z,21.8
2018-08-31T04:36:02.443Z,21.8
2018-08-31T04:36:52.431Z,21.8
2018-08-31T04:37:42.285Z,21.8
2018-08-31T04:38:33.140Z,21.8
2018-08-31T04:39:21.855Z,21.8
2018-08-31T04:40:12.250Z,21.8
2018-08-31T04:41:02.040Z,21.8
2018-08-31T04:41:53.798Z,21.8
2018-08-31T04:42:43.626Z,21.8
2018-08-31T05:00:20.113Z,21.8
2018-08-31T05:01:11.129Z,21.8
2018-08-31T05:02:01.995Z,21.8
2018-08-31T05:02:52.024Z,21.8
2018-08-31T05:03:41.634Z,21.8
2018-08-31T05:04:31.188Z,21.8
2018-08-31T05:05:21.835Z,21.8
2018-08-31T05:06:12.065Z,21.8
2018-08-31T05:07:02.672Z,21.8
2018-08-31T05:07:52.441Z,21.8
2018-08-31T05:08:40.654Z,21.8
2018-08-31T05:09:32.321Z,21.8
2018-08-31T05:10:21.771Z,21.8
2018-08-31T05:11:11.536Z,21.8
2018-08-31T05:12:01.916Z,21.8
2018-08-31T05:12:53.334Z,21.8
2018-08-31T05:13:42.026Z,21.8
2018-08-31T05:14:32.201Z,21.8
2018-08-31T05:15:23.099Z,21.8
2018-08-31T05:16:15.437Z,21.8
2018-08-31T05:17:03.171Z,21.8
2018-08-31T05:17:53.258Z,21.8
2018-08-31T05:18:43.525Z,21.8
2018-08-31T05:19:32.440Z,21.8
2018-08-31T05:20:23.918Z,21.8
2018-08-31T05:21:13.231Z,21.8
2018-08-31T05:22:03.735Z,21.8
2018-08-31T05:22:54.788Z,21.8
2018-08-31T05:23:44.127Z,21.8
2018-08-31T05:24:33.442Z,21.8
2018-08-31T05:25:23.843Z,21.8
2018-08-31T05:26:13.862Z,21.8
2018-08-31T05:27:03.330Z,21.8
2018-08-31T05:27:53.683Z,21.8
2018-08-31T05:28:43.837Z,21.8
2018-08-31T05:29:33.916Z,21.8
2018-08-31T05:30:24.077Z,21.8
2018-08-31T05:31:14.560Z,21.8
2018-08-31T05:32:04.252Z,21.8
2018-08-31T05:32:54.414Z,21.8
2018-08-31T05:33:44.176Z,21.8
2018-08-31T05:34:33.123Z,21.8
2018-08-31T05:35:23.232Z,21.8
2018-08-31T05:36:13.810Z,21.8
2018-08-31T05:37:03.120Z,21.8
2018-08-31T05:37:53.969Z,21.8
2018-08-31T05:38:44.339Z,21.8
2018-08-31T05:39:34.135Z,21.8
2018-08-31T05:40:24.197Z,21.8
2018-08-31T05:41:14.425Z,21.8
2018-08-31T05:42:05.297Z,21.8
2018-08-31T05:42:53.742Z,21.8
2018-08-31T05:43:44.864Z,21.8
2018-08-31T05:44:34.390Z,21.8
2018-08-31T05:45:24.500Z,21.8
2018-08-31T05:46:14.250Z,21.8
2018-08-31T05:47:04.886Z,21.8
2018-08-31T05:47:53.812Z,21.8
2018-08-31T05:48:45.851Z,21.8
2018-08-31T05:49:35.034Z,21.8
2018-08-31T05:50:25.134Z,21.8
2018-08-31T05:51:15.758Z,21.8
2018-08-31T05:52:04.969Z,21.8
2018-08-31T05:52:54.708Z,21.7
2018-08-31T05:53:46.689Z,21.8
2018-08-31T05:54:35.773Z,21.8
2018-08-31T05:55:25.537Z,21.7
2018-08-31T05:56:16.031Z,21.7
2018-08-31T05:57:05.931Z,21.7
2018-08-31T05:57:55.980Z,21.7
2018-08-31T05:58:44.683Z,21.7
2018-08-31T05:59:36.658Z,21.7
2018-08-31T06:00:25.408Z,21.7
2018-08-31T06:01:17.082Z,21.7
2018-08-31T06:02:07.058Z,21.7
2018-08-31T06:02:56.416Z,21.7
2018-08-31T06:03:46.728Z,21.7
2018-08-31T06:04:36.785Z,21.7
2018-08-31T06:05:26.845Z,21.7
2018-08-31T06:06:16.074Z,21.7
2018-08-31T06:07:06.951Z,21.7
2018-08-31T06:07:55.688Z,21.6
2018-08-31T06:08:46.255Z,21.7
2018-08-31T06:09:36.570Z,21.7
2018-08-31T06:10:27.014Z,21.7
2018-08-31T06:11:16.932Z,21.7
2018-08-31T06:12:09.020Z,21.6
2018-08-31T06:12:56.605Z,21.7
2018-08-31T06:13:46.922Z,21.7
2018-08-31T06:14:36.993Z,21.7
2018-08-31T06:15:27.054Z,21.7
2018-08-31T06:16:17.692Z,21.7
2018-08-31T06:17:07.207Z,21.7
2018-08-31T06:17:57.257Z,21.7
2018-08-31T06:18:47.655Z,21.7
2018-08-31T06:19:37.667Z,21.7
2018-08-31T06:20:27.447Z,21.7
2018-08-31T06:21:18.606Z,21.7
2018-08-31T06:22:07.409Z,21.7
2018-08-31T06:22:57.373Z,21.7
2018-08-31T06:23:47.999Z,21.7
2018-08-31T06:24:38.312Z,21.7
2018-08-31T06:25:28.378Z,21.7
2018-08-31T06:26:18.173Z,21.7
2018-08-31T06:27:08.288Z,21.7
2018-08-31T06:27:57.239Z,21.8
2018-08-31T06:28:47.982Z,21.8
2018-08-31T06:29:37.682Z,21.7
2018-08-31T06:30:27.513Z,21.8
2018-08-31T06:31:17.779Z,21.8
2018-08-31T06:32:08.465Z,21.8
2018-08-31T06:32:58.735Z,21.8
2018-08-31T06:33:48.619Z,21.8
2018-08-31T06:34:38.380Z,21.7
2018-08-31T06:35:28.141Z,21.8
2018-08-31T06:36:19.003Z,21.8
2018-08-31T06:37:08.347Z,21.8
2018-08-31T06:37:58.798Z,21.8
2018-08-31T06:38:47.845Z,21.8
2018-08-31T06:39:39.417Z,21.8
2018-08-31T06:40:28.975Z,21.8
2018-08-31T06:41:19.306Z,21.8
2018-08-31T06:42:09.420Z,21.8
2018-08-31T06:42:59.450Z,21.8
2018-08-31T06:43:49.581Z,21.8
2018-08-31T06:44:39.638Z,21.8
2018-08-31T06:45:29.913Z,21.8
2018-08-31T06:46:20.021Z,21.8
2018-08-31T06:47:09.776Z,21.8
2018-08-31T06:47:59.521Z,21.8
2018-08-31T06:48:49.675Z,21.8
2018-08-31T06:49:40.000Z,21.8
2018-08-31T06:50:30.578Z,21.8
2018-08-31T06:51:19.771Z,21.8
2018-08-31T06:52:10.269Z,21.8
2018-08-31T06:53:00.520Z,21.8
2018-08-31T06:53:48.630Z,21.8
2018-08-31T06:54:40.387Z,21.8
2018-08-31T06:55:29.745Z,21.8
2018-08-31T06:56:20.522Z,21.8
2018-08-31T06:57:11.168Z,21.8
2018-08-31T06:58:00.906Z,21.8
2018-08-31T06:58:50.747Z,21.8
2018-08-31T06:59:39.929Z,21.8
2018-08-31T07:00:31.402Z,21.8
2018-08-31T07:01:20.629Z,21.8
2018-08-31T07:02:11.474Z,21.8
2018-08-31T07:03:01.426Z,21.8
2018-08-31T07:03:52.986Z,21.8
2018-08-31T07:04:40.329Z,21.8
2018-08-31T07:05:30.654Z,21.8
2018-08-31T07:06:21.533Z,21.8
2018-08-31T07:07:10.446Z,21.8
2018-08-31T07:08:02.259Z,21.8
2018-08-31T07:08:52.355Z,21.8
2018-08-31T07:09:42.851Z,21.8
2018-08-31T07:10:30.481Z,21.8
2018-08-31T07:11:21.661Z,21.8
2018-08-31T07:12:10.887Z,21.8
2018-08-31T07:13:01.558Z,21.8
2018-08-31T07:13:52.061Z,21.8
2018-08-31T07:14:42.191Z,21.8
2018-08-31T07:15:31.697Z,21.8
2018-08-31T07:16:22.596Z,21.8
2018-08-31T07:17:11.833Z,21.8
2018-08-31T07:18:01.663Z,21.8
2018-08-31T07:18:51.957Z,21.8
2018-08-31T07:19:43.142Z,21.8
2018-08-31T07:20:31.546Z,21.8
2018-08-31T07:21:21.994Z,21.8
2018-08-31T07:22:12.223Z,21.8
2018-08-31T07:23:02.155Z,21.8
2018-08-31T07:23:53.210Z,21.8
2018-08-31T07:24:42.672Z,21.8
2018-08-31T07:25:32.005Z,21.8
2018-08-31T07:26:23.677Z,21.8
2018-08-31T07:27:11.783Z,21.8
2018-08-31T07:28:02.679Z,21.8
2018-08-31T07:28:53.312Z,21.8
2018-08-31T07:29:43.380Z,21.8
2018-08-31T07:30:32.095Z,21.8
2018-08-31T07:31:24.089Z,21.8
2018-08-31T07:32:13.772Z,21.8
2018-08-31T07:33:03.093Z,21.8
2018-08-31T07:33:53.182Z,21.8
2018-08-31T07:34:44.140Z,21.8
2018-08-31T07:35:32.765Z,21.8
2018-08-31T07:36:25.520Z,21.8
2018-08-31T07:37:14.004Z,21.8
2018-08-31T07:38:03.527Z,21.8
2018-08-31T07:38:53.852Z,21.8
2018-08-31T07:39:43.997Z,21.8
2018-08-31T07:40:33.140Z,21.8
2018-08-31T07:41:23.968Z,21.8
2018-08-31T07:42:14.266Z,21.8
2018-08-31T07:43:03.958Z,21.8
2018-08-31T07:43:55.017Z,21.8
2018-08-31T07:44:43.732Z,21.8
2018-08-31T07:45:34.022Z,21.8
2018-08-31T07:46:24.114Z,21.8
2018-08-31T07:47:14.842Z,21.8
2018-08-31T07:48:04.459Z,21.8
2018-08-31T07:48:54.331Z,21.8
2018-08-31T07:49:44.421Z,21.8
2018-08-31T07:50:34.237Z,21.8
2018-08-31T07:51:23.964Z,21.8
2018-08-31T07:52:14.867Z,21.8
2018-08-31T07:53:05.769Z,21.8
2018-08-31T07:53:56.622Z,21.8
2018-08-31T07:54:45.543Z,21.8
2018-08-31T07:55:35.132Z,21.8
2018-08-31T07:56:25.254Z,21.8
2018-08-31T07:57:15.542Z,21.8
2018-08-31T07:58:05.042Z,21.8
2018-08-31T07:58:54.619Z,21.9
2018-08-31T07:59:45.708Z,21.8
2018-08-31T08:00:34.994Z,21.8
2018-08-31T08:01:25.931Z,21.8
2018-08-31T08:02:15.418Z,21.9
2018-08-31T08:03:04.936Z,21.8
2018-08-31T08:03:54.676Z,21.9
2018-08-31T08:04:44.191Z,21.9
2018-08-31T08:05:36.952Z,21.8
2018-08-31T08:06:25.228Z,21.9
2018-08-31T08:07:15.996Z,21.9
2018-08-31T08:08:05.256Z,21.9
2018-08-31T08:08:55.886Z,21.8
2018-08-31T08:09:44.930Z,21.9
2018-08-31T08:10:36.006Z,21.9
2018-08-31T08:11:24.928Z,21.9
2018-08-31T08:12:16.348Z,21.9
2018-08-31T08:13:06.555Z,21.9
2018-08-31T08:13:56.025Z,21.9
2018-08-31T08:14:46.449Z,21.9
2018-08-31T08:15:37.009Z,21.9
2018-08-31T08:16:27.241Z,21.9
2018-08-31T08:17:15.732Z,21.9
2018-08-31T08:18:06.293Z,21.9
2018-08-31T08:18:56.740Z,21.9
2018-08-31T08:19:47.992Z,21.9
2018-08-31T08:20:36.350Z,21.9
2018-08-31T08:21:27.657Z,21.9
2018-08-31T08:22:16.653Z,21.9
2018-08-31T08:23:06.965Z,21.9
2018-08-31T08:23:56.470Z,21.9
2018-08-31T08:24:46.597Z,21.9
2018-08-31T08:25:37.717Z,21.9
2018-08-31T08:26:28.040Z,21.9
2018-08-31T08:27:18.127Z,21.9
2018-08-31T08:28:07.670Z,21.9
2018-08-31T08:28:56.870Z,21.9
2018-08-31T08:29:48.222Z,21.9
2018-08-31T08:30:38.135Z,21.9
2018-08-31T08:31:27.952Z,21.9
2018-08-31T08:32:17.429Z,21.9
2018-08-31T08:33:07.562Z,21.9
2018-08-31T08:33:57.092Z,21.9
2018-08-31T08:34:47.914Z,21.9
2018-08-31T08:35:38.553Z,21.9
2018-08-31T08:36:28.323Z,21.9
2018-08-31T08:37:17.594Z,21.9
2018-08-31T08:38:07.669Z,21.9
2018-08-31T08:38:58.332Z,21.9
2018-08-31T08:39:48.819Z,21.9
2018-08-31T08:40:38.654Z,21.9
2018-08-31T08:41:28.704Z,21.9
2018-08-31T08:42:20.373Z,21.9
2018-08-31T08:43:09.381Z,21.9
2018-08-31T08:43:59.151Z,21.9
2018-08-31T08:44:48.653Z,21.9
2018-08-31T08:45:39.361Z,21.9
2018-08-31T08:46:29.059Z,21.9
2018-08-31T08:47:19.502Z,21.9
2018-08-31T08:48:09.320Z,21.9
2018-08-31T08:48:59.153Z,21.9
2018-08-31T08:49:49.614Z,21.9
2018-08-31T08:50:38.630Z,21.9
2018-08-31T08:51:29.226Z,21.9
2018-08-31T08:52:19.248Z,21.9
2018-08-31T08:53:09.287Z,21.9
2018-08-31T08:54:00.226Z,21.9
2018-08-31T08:54:49.968Z,21.9
2018-08-31T08:55:39.846Z,21.9
2018-08-31T08:56:29.828Z,21.9
2018-08-31T08:57:20.226Z,21.9
2018-08-31T08:58:10.134Z,21.9
2018-08-31T09:14:52.759Z,21.9
2018-08-31T09:15:41.234Z,21.9
2018-08-31T09:16:32.463Z,21.9
2018-08-31T09:17:23.026Z,21.9
2018-08-31T09:18:12.604Z,21.9
2018-08-31T09:19:02.348Z,21.9
2018-08-31T09:19:53.728Z,21.9
2018-08-31T09:20:43.016Z,21.9
2018-08-31T09:21:33.078Z,21.9
2018-08-31T09:22:23.156Z,21.9
2018-08-31T09:23:12.626Z,21.9
2018-08-31T09:24:02.747Z,21.9
2018-08-31T09:24:54.371Z,21.9
2018-08-31T09:25:43.166Z,21.9
2018-08-31T09:26:33.731Z,21.9
2018-08-31T09:27:23.651Z,21.9
2018-08-31T09:28:13.301Z,21.9
2018-08-31T09:29:03.640Z,21.9
2018-08-31T09:29:53.730Z,21.9
2018-08-31T09:30:43.772Z,21.9
2018-08-31T09:31:34.145Z,21.9
2018-08-31T09:32:23.680Z,21.9
2018-08-31T09:33:13.200Z,21.9
2018-08-31T09:34:04.343Z,21.9
2018-08-31T09:34:53.790Z,21.9
2018-08-31T09:35:43.863Z,21.9
2018-08-31T09:36:33.652Z,21.9
2018-08-31T09:37:23.764Z,21.9
2018-08-31T09:38:14.234Z,21.9
2018-08-31T09:39:03.330Z,21.9
2018-08-31T09:39:55.307Z,21.9
2018-08-31T09:40:44.473Z,21.9
2018-08-31T09:41:34.694Z,21.9
2018-08-31T09:42:24.717Z,21.9
2018-08-31T09:43:14.577Z,21.9
2018-08-31T09:44:05.757Z,21.9
2018-08-31T09:44:53.825Z,21.9
2018-08-31T09:45:44.101Z,21.9
2018-08-31T09:46:34.414Z,21.9
2018-08-31T09:47:24.826Z,21.9
2018-08-31T09:48:15.386Z,21.9
2018-08-31T09:49:04.939Z,21.9
2018-08-31T09:49:56.772Z,21.9
2018-08-31T09:50:45.879Z,21.9
2018-08-31T09:51:35.396Z,21.9
2018-08-31T09:52:25.770Z,21.9
2018-08-31T09:53:15.851Z,21.9
2018-08-31T09:54:05.046Z,21.9
2018-08-31T09:54:54.579Z,21.9
2018-08-31T09:55:46.521Z,21.9
2018-08-31T09:56:34.924Z,21.9
2018-08-31T09:58:26.681Z,21.9
2018-08-31T09:58:53.858Z,21.9
2018-08-31T09:59:27.418Z,21.9
2018-08-31T10:00:17.995Z,21.9
2018-08-31T10:01:09.076Z,21.9
2018-08-31T10:01:58.056Z,21.9
2018-08-31T10:02:48.181Z,21.9
2018-08-31T10:03:37.958Z,21.9
2018-08-31T10:04:28.865Z,21.9
2018-08-31T10:05:19.270Z,21.9
2018-08-31T10:06:07.890Z,21.9
2018-08-31T10:06:57.610Z,21.9
2018-08-31T10:07:48.538Z,21.9
2018-08-31T10:08:38.927Z,22
2018-08-31T10:09:29.130Z,21.9
2018-08-31T10:10:18.730Z,21.9
2018-08-31T10:11:09.358Z,22
2018-08-31T10:11:58.603Z,22
2018-08-31T10:12:49.503Z,22
2018-08-31T10:13:39.543Z,21.9
2018-08-31T10:14:29.657Z,22
2018-08-31T10:15:19.149Z,22
2018-08-31T10:16:09.712Z,21.9
2018-08-31T10:16:59.898Z,21.9
2018-08-31T10:17:49.365Z,22
2018-08-31T10:18:39.797Z,22
2018-08-31T10:19:30.463Z,22
2018-08-31T10:20:19.559Z,22
2018-08-31T10:21:10.362Z,22
2018-08-31T10:21:59.684Z,22
2018-08-31T10:22:50.060Z,22
2018-08-31T10:23:40.409Z,22
2018-08-31T10:24:30.650Z,22
2018-08-31T10:25:20.469Z,22
2018-08-31T10:26:11.210Z,22
2018-08-31T10:26:59.645Z,22
2018-08-31T10:27:50.661Z,22
2018-08-31T10:28:40.256Z,22
2018-08-31T10:29:30.539Z,22
2018-08-31T10:30:20.671Z,22
2018-08-31T10:31:10.552Z,22
2018-08-31T10:32:00.922Z,22
2018-08-31T10:32:51.053Z,22
2018-08-31T10:33:40.551Z,22
2018-08-31T10:34:30.976Z,22
2018-08-31T10:35:20.128Z,22
2018-08-31T10:36:11.573Z,22
2018-08-31T10:37:00.798Z,22
2018-08-31T10:37:51.516Z,22
2018-08-31T10:38:41.530Z,22
2018-08-31T10:39:31.282Z,22.1
2018-08-31T10:40:21.680Z,22
2018-08-31T10:41:10.858Z,22.1
2018-08-31T10:42:01.483Z,22.1
2018-08-31T10:42:50.966Z,22.1
2018-08-31T10:43:39.645Z,22.1
2018-08-31T10:44:30.783Z,22.1
2018-08-31T10:45:21.747Z,22.1
2018-08-31T10:46:11.520Z,22.1
2018-08-31T10:47:02.711Z,22.1
2018-08-31T10:47:52.235Z,22.1
2018-08-31T10:48:42.050Z,22.1
2018-08-31T10:49:31.801Z,22.1
2018-08-31T10:50:22.147Z,22.1
2018-08-31T10:51:12.432Z,22.1
2018-08-31T10:52:02.244Z,22.1
2018-08-31T10:52:52.085Z,22.1
2018-08-31T10:53:41.587Z,22.1
2018-08-31T10:54:32.747Z,22.1
2018-08-31T10:55:22.818Z,22.1
2018-08-31T10:56:12.845Z,22.1
2018-08-31T10:57:02.724Z,22.1
2018-08-31T10:57:52.452Z,22.1
2018-08-31T10:58:42.234Z,22.1
2018-08-31T10:59:33.247Z,22.1
2018-08-31T11:00:22.477Z,22.1
2018-08-31T11:01:13.114Z,22.1
2018-08-31T11:02:03.341Z,22.1
2018-08-31T11:02:52.860Z,22.1
2018-08-31T11:03:44.107Z,22.1
2018-08-31T11:04:33.270Z,22.1
2018-08-31T11:05:22.236Z,22.1
2018-08-31T11:06:13.676Z,22.1
2018-08-31T11:07:03.746Z,22.1
2018-08-31T11:07:53.851Z,22.1
2018-08-31T11:08:43.822Z,22.1
2018-08-31T11:09:33.159Z,22.1
2018-08-31T11:10:23.988Z,22.1
2018-08-31T11:11:13.521Z,22.1
2018-08-31T11:12:03.817Z,22.1
2018-08-31T11:12:55.944Z,22.1
2018-08-31T11:13:43.946Z,22.1
2018-08-31T11:14:34.068Z,22.1
2018-08-31T11:15:26.351Z,22.1
2018-08-31T11:16:14.239Z,22.1
2018-08-31T11:17:04.243Z,22.1
2018-08-31T11:17:54.258Z,22.1
2018-08-31T11:18:44.717Z,22.1
2018-08-31T11:19:33.271Z,22.1
2018-08-31T11:20:23.931Z,22.1
2018-08-31T11:21:14.588Z,22.1
2018-08-31T11:22:03.545Z,22.1
2018-08-31T11:22:54.980Z,22.1
2018-08-31T11:23:45.068Z,22.1
2018-08-31T11:24:34.871Z,22.1
2018-08-31T11:25:24.348Z,22.1
2018-08-31T11:26:14.093Z,22.1
2018-08-31T11:27:04.435Z,22.1
2018-08-31T11:27:55.982Z,22.1
2018-08-31T11:28:45.085Z,22.1
2018-08-31T11:29:35.247Z,22.1
2018-08-31T11:30:25.550Z,22.1
2018-08-31T11:31:15.066Z,22.1
2018-08-31T11:32:05.419Z,22.1
2018-08-31T11:32:55.175Z,22.1
2018-08-31T11:33:46.064Z,22.1
2018-08-31T11:35:06.602Z,22.1
2018-08-31T11:35:54.702Z,22.1
2018-08-31T11:36:33.845Z,22.1
2018-08-31T11:37:20.470Z,22.1
2018-08-31T11:37:55.858Z,22.1
2018-08-31T11:39:17.282Z,22.1
2018-08-31T11:39:51.037Z,22.1
2018-08-31T11:40:26.347Z,22.1
2018-08-31T11:41:16.201Z,22.1
2018-08-31T11:42:06.489Z,22.1
2018-08-31T11:43:25.437Z,22.1
2018-08-31T11:44:00.504Z,22.1
2018-08-31T11:44:36.626Z,22.1
2018-08-31T11:45:25.854Z,22.1
2018-08-31T11:46:16.547Z,22.1
2018-08-31T11:47:06.280Z,22.1
2018-08-31T11:48:11.484Z,22.1
2018-08-31T11:48:46.961Z,22.1
2018-08-31T11:49:36.754Z,22.1
2018-08-31T11:50:25.967Z,22.1
2018-08-31T11:51:16.323Z,22.1
2018-08-31T11:52:06.977Z,22.1
2018-08-31T11:52:57.324Z,22.1
2018-08-31T11:53:45.989Z,22.1
2018-08-31T11:54:37.483Z,22.1
2018-08-31T11:55:28.976Z,22.1
2018-08-31T11:56:17.277Z,22.1
2018-08-31T11:57:06.631Z,22.1
2018-08-31T11:57:57.463Z,22.1
2018-08-31T11:58:47.552Z,22.1
2018-08-31T11:59:37.291Z,22.1
2018-08-31T12:00:27.881Z,22.1
2018-08-31T12:01:17.948Z,22.1
2018-08-31T12:02:10.538Z,22.1